sensor_id;sensor_type;location;lat;lon;timestamp;P1;durP1;ratioP1;P2;durP2;ratioP2
24557;SDS011;12726;49.148;8.582;2024-01-10T00:02:10;19.73;;;8.65;;
24557;SDS011;12726;49.148;8.582;2024-01-10T00:04:56;20.13;;;8.77;;
24557;SDS011;12726;49.148;8.582;2024-01-10T00:07:42;19.63;;;8.80;;
24557;SDS011;12726;49.148;8.582;2024-01-10T00:10:28;20.15;;;9.27;;
24557;SDS011;12726;49.148;8.582;2024-01-10T00:13:13;17.33;;;8.77;;
24557;SDS011;12726;49.148;8.582;2024-01-10T00:15:58;21.88;;;8.60;;
24557;SDS011;12726;49.148;8.582;2024-01-10T00:18:44;16.83;;;7.97;;
24557;SDS011;12726;49.148;8.582;2024-01-10T00:21:30;18.45;;;8.77;;
24557;SDS011;12726;49.148;8.582;2024-01-10T00:24:16;19.30;;;8.40;;
24557;SDS011;12726;49.148;8.582;2024-01-10T00:27:02;17.95;;;8.35;;
24557;SDS011;12726;49.148;8.582;2024-01-10T00:29:49;17.65;;;8.35;;
24557;SDS011;12726;49.148;8.582;2024-01-10T00:32:35;17.70;;;8.32;;
24557;SDS011;12726;49.148;8.582;2024-01-10T00:35:20;19.17;;;8.30;;
24557;SDS011;12726;49.148;8.582;2024-01-10T00:38:06;21.05;;;9.70;;
24557;SDS011;12726;49.148;8.582;2024-01-10T00:40:53;16.65;;;7.65;;
24557;SDS011;12726;49.148;8.582;2024-01-10T00:43:38;20.25;;;8.15;;
24557;SDS011;12726;49.148;8.582;2024-01-10T00:46:23;20.42;;;8.43;;
24557;SDS011;12726;49.148;8.582;2024-01-10T00:49:09;15.20;;;8.07;;
24557;SDS011;12726;49.148;8.582;2024-01-10T00:51:54;17.08;;;7.85;;
24557;SDS011;12726;49.148;8.582;2024-01-10T00:54:39;16.60;;;8.15;;
24557;SDS011;12726;49.148;8.582;2024-01-10T00:57:26;16.98;;;8.57;;
24557;SDS011;12726;49.148;8.582;2024-01-10T01:00:12;20.13;;;8.93;;
24557;SDS011;12726;49.148;8.582;2024-01-10T01:02:58;16.88;;;9.15;;
24557;SDS011;12726;49.148;8.582;2024-01-10T01:05:43;18.27;;;8.45;;
24557;SDS011;12726;49.148;8.582;2024-01-10T01:08:28;17.00;;;7.97;;
24557;SDS011;12726;49.148;8.582;2024-01-10T01:11:14;17.17;;;8.75;;
24557;SDS011;12726;49.148;8.582;2024-01-10T01:14:00;17.20;;;8.40;;
24557;SDS011;12726;49.148;8.582;2024-01-10T01:16:46;18.75;;;8.40;;
24557;SDS011;12726;49.148;8.582;2024-01-10T01:19:32;19.33;;;8.23;;
24557;SDS011;12726;49.148;8.582;2024-01-10T01:22:17;13.88;;;7.47;;
24557;SDS011;12726;49.148;8.582;2024-01-10T01:25:03;18.00;;;8.65;;
24557;SDS011;12726;49.148;8.582;2024-01-10T01:27:49;16.13;;;7.82;;
24557;SDS011;12726;49.148;8.582;2024-01-10T01:30:36;17.73;;;7.82;;
24557;SDS011;12726;49.148;8.582;2024-01-10T01:33:22;19.00;;;8.90;;
24557;SDS011;12726;49.148;8.582;2024-01-10T01:36:08;17.00;;;7.83;;
24557;SDS011;12726;49.148;8.582;2024-01-10T01:38:53;21.25;;;8.68;;
24557;SDS011;12726;49.148;8.582;2024-01-10T01:41:38;17.90;;;8.85;;
24557;SDS011;12726;49.148;8.582;2024-01-10T01:44:24;13.98;;;6.50;;
24557;SDS011;12726;49.148;8.582;2024-01-10T01:47:10;18.63;;;8.55;;
24557;SDS011;12726;49.148;8.582;2024-01-10T01:49:56;18.23;;;7.85;;
24557;SDS011;12726;49.148;8.582;2024-01-10T01:52:41;19.73;;;8.20;;
24557;SDS011;12726;49.148;8.582;2024-01-10T01:55:28;17.17;;;8.13;;
24557;SDS011;12726;49.148;8.582;2024-01-10T01:58:13;16.80;;;8.40;;
24557;SDS011;12726;49.148;8.582;2024-01-10T02:00:59;17.63;;;7.68;;
24557;SDS011;12726;49.148;8.582;2024-01-10T02:03:47;21.15;;;9.00;;
24557;SDS011;12726;49.148;8.582;2024-01-10T02:06:32;15.52;;;7.93;;
24557;SDS011;12726;49.148;8.582;2024-01-10T02:09:18;18.98;;;8.68;;
24557;SDS011;12726;49.148;8.582;2024-01-10T02:12:03;17.70;;;7.70;;
24557;SDS011;12726;49.148;8.582;2024-01-10T02:14:49;15.23;;;7.35;;
24557;SDS011;12726;49.148;8.582;2024-01-10T02:17:35;18.02;;;8.32;;
24557;SDS011;12726;49.148;8.582;2024-01-10T02:20:22;19.63;;;8.13;;
24557;SDS011;12726;49.148;8.582;2024-01-10T02:23:07;12.85;;;7.53;;
24557;SDS011;12726;49.148;8.582;2024-01-10T02:25:54;21.73;;;8.50;;
24557;SDS011;12726;49.148;8.582;2024-01-10T02:28:39;17.83;;;7.95;;
24557;SDS011;12726;49.148;8.582;2024-01-10T02:31:25;16.45;;;7.78;;
24557;SDS011;12726;49.148;8.582;2024-01-10T02:34:11;17.80;;;7.95;;
24557;SDS011;12726;49.148;8.582;2024-01-10T02:36:56;18.55;;;8.48;;
24557;SDS011;12726;49.148;8.582;2024-01-10T02:39:42;18.00;;;8.23;;
24557;SDS011;12726;49.148;8.582;2024-01-10T02:42:28;17.00;;;8.30;;
24557;SDS011;12726;49.148;8.582;2024-01-10T02:45:14;17.58;;;7.93;;
24557;SDS011;12726;49.148;8.582;2024-01-10T02:47:59;16.58;;;7.50;;
24557;SDS011;12726;49.148;8.582;2024-01-10T02:50:45;16.17;;;7.82;;
24557;SDS011;12726;49.148;8.582;2024-01-10T02:53:30;21.33;;;8.65;;
24557;SDS011;12726;49.148;8.582;2024-01-10T02:56:15;17.30;;;7.70;;
24557;SDS011;12726;49.148;8.582;2024-01-10T02:59:02;19.98;;;8.25;;
24557;SDS011;12726;49.148;8.582;2024-01-10T03:01:48;19.85;;;8.77;;
24557;SDS011;12726;49.148;8.582;2024-01-10T03:04:33;19.25;;;9.70;;
24557;SDS011;12726;49.148;8.582;2024-01-10T03:07:18;17.85;;;8.27;;
24557;SDS011;12726;49.148;8.582;2024-01-10T03:10:07;14.80;;;7.90;;
24557;SDS011;12726;49.148;8.582;2024-01-10T03:12:53;22.40;;;8.88;;
24557;SDS011;12726;49.148;8.582;2024-01-10T03:15:39;20.10;;;8.40;;
24557;SDS011;12726;49.148;8.582;2024-01-10T03:18:25;16.90;;;8.77;;
24557;SDS011;12726;49.148;8.582;2024-01-10T03:21:10;18.80;;;8.30;;
24557;SDS011;12726;49.148;8.582;2024-01-10T03:23:56;19.42;;;9.43;;
24557;SDS011;12726;49.148;8.582;2024-01-10T03:26:42;18.60;;;9.70;;
24557;SDS011;12726;49.148;8.582;2024-01-10T03:29:28;19.95;;;10.00;;
24557;SDS011;12726;49.148;8.582;2024-01-10T03:32:16;17.98;;;8.90;;
24557;SDS011;12726;49.148;8.582;2024-01-10T03:35:01;18.42;;;8.55;;
24557;SDS011;12726;49.148;8.582;2024-01-10T03:37:47;19.00;;;8.93;;
24557;SDS011;12726;49.148;8.582;2024-01-10T03:40:33;21.45;;;8.93;;
24557;SDS011;12726;49.148;8.582;2024-01-10T03:43:19;17.25;;;8.77;;
24557;SDS011;12726;49.148;8.582;2024-01-10T03:46:04;23.05;;;9.90;;
24557;SDS011;12726;49.148;8.582;2024-01-10T03:48:52;18.95;;;8.93;;
24557;SDS011;12726;49.148;8.582;2024-01-10T03:51:37;20.42;;;8.27;;
24557;SDS011;12726;49.148;8.582;2024-01-10T03:54:24;18.42;;;8.77;;
24557;SDS011;12726;49.148;8.582;2024-01-10T03:57:09;19.20;;;9.25;;
24557;SDS011;12726;49.148;8.582;2024-01-10T03:59:54;22.52;;;9.82;;
24557;SDS011;12726;49.148;8.582;2024-01-10T04:02:40;22.95;;;9.25;;
24557;SDS011;12726;49.148;8.582;2024-01-10T04:05:26;21.88;;;9.02;;
24557;SDS011;12726;49.148;8.582;2024-01-10T04:08:12;17.73;;;8.80;;
24557;SDS011;12726;49.148;8.582;2024-01-10T04:10:57;19.60;;;8.73;;
24557;SDS011;12726;49.148;8.582;2024-01-10T04:13:43;22.70;;;9.85;;
24557;SDS011;12726;49.148;8.582;2024-01-10T04:16:28;20.70;;;9.85;;
24557;SDS011;12726;49.148;8.582;2024-01-10T04:19:16;20.30;;;9.30;;
24557;SDS011;12726;49.148;8.582;2024-01-10T04:22:03;21.08;;;9.45;;
24557;SDS011;12726;49.148;8.582;2024-01-10T04:24:48;20.13;;;9.20;;
24557;SDS011;12726;49.148;8.582;2024-01-10T04:27:37;17.27;;;8.43;;
24557;SDS011;12726;49.148;8.582;2024-01-10T04:30:23;21.88;;;9.57;;
24557;SDS011;12726;49.148;8.582;2024-01-10T04:33:08;18.65;;;8.40;;
24557;SDS011;12726;49.148;8.582;2024-01-10T04:35:53;21.08;;;10.40;;
24557;SDS011;12726;49.148;8.582;2024-01-10T04:38:40;20.48;;;9.95;;
24557;SDS011;12726;49.148;8.582;2024-01-10T04:41:26;19.08;;;8.93;;
24557;SDS011;12726;49.148;8.582;2024-01-10T04:44:11;23.88;;;9.43;;
24557;SDS011;12726;49.148;8.582;2024-01-10T04:46:56;21.83;;;10.00;;
24557;SDS011;12726;49.148;8.582;2024-01-10T04:49:42;22.38;;;10.43;;
24557;SDS011;12726;49.148;8.582;2024-01-10T04:52:27;26.95;;;10.48;;
24557;SDS011;12726;49.148;8.582;2024-01-10T04:55:14;19.27;;;9.88;;
24557;SDS011;12726;49.148;8.582;2024-01-10T04:58:00;23.85;;;10.07;;
24557;SDS011;12726;49.148;8.582;2024-01-10T05:00:45;18.50;;;9.13;;
24557;SDS011;12726;49.148;8.582;2024-01-10T05:03:31;19.70;;;10.23;;
24557;SDS011;12726;49.148;8.582;2024-01-10T05:06:16;17.90;;;9.27;;
24557;SDS011;12726;49.148;8.582;2024-01-10T05:09:01;20.98;;;9.73;;
24557;SDS011;12726;49.148;8.582;2024-01-10T05:11:49;19.15;;;9.23;;
24557;SDS011;12726;49.148;8.582;2024-01-10T05:14:35;20.77;;;8.98;;
24557;SDS011;12726;49.148;8.582;2024-01-10T05:17:21;22.33;;;9.85;;
24557;SDS011;12726;49.148;8.582;2024-01-10T05:20:06;18.30;;;9.93;;
24557;SDS011;12726;49.148;8.582;2024-01-10T05:22:53;22.70;;;9.82;;
24557;SDS011;12726;49.148;8.582;2024-01-10T05:25:42;20.27;;;10.13;;
24557;SDS011;12726;49.148;8.582;2024-01-10T05:28:28;21.17;;;9.43;;
24557;SDS011;12726;49.148;8.582;2024-01-10T05:31:14;25.40;;;10.82;;
24557;SDS011;12726;49.148;8.582;2024-01-10T05:33:59;20.42;;;10.00;;
24557;SDS011;12726;49.148;8.582;2024-01-10T05:36:44;22.50;;;9.57;;
24557;SDS011;12726;49.148;8.582;2024-01-10T05:39:29;24.40;;;10.75;;
24557;SDS011;12726;49.148;8.582;2024-01-10T05:42:15;24.90;;;10.57;;
24557;SDS011;12726;49.148;8.582;2024-01-10T05:45:01;24.05;;;10.07;;
24557;SDS011;12726;49.148;8.582;2024-01-10T05:47:46;22.95;;;11.00;;
24557;SDS011;12726;49.148;8.582;2024-01-10T05:50:32;20.65;;;9.93;;
24557;SDS011;12726;49.148;8.582;2024-01-10T05:53:18;20.88;;;9.63;;
24557;SDS011;12726;49.148;8.582;2024-01-10T05:56:05;22.88;;;9.98;;
24557;SDS011;12726;49.148;8.582;2024-01-10T05:58:51;20.67;;;9.10;;
24557;SDS011;12726;49.148;8.582;2024-01-10T06:01:37;20.13;;;10.75;;
24557;SDS011;12726;49.148;8.582;2024-01-10T06:04:23;18.88;;;9.70;;
24557;SDS011;12726;49.148;8.582;2024-01-10T06:07:08;21.70;;;10.05;;
24557;SDS011;12726;49.148;8.582;2024-01-10T06:09:54;21.38;;;10.00;;
24557;SDS011;12726;49.148;8.582;2024-01-10T06:12:39;21.42;;;10.15;;
24557;SDS011;12726;49.148;8.582;2024-01-10T06:15:24;28.35;;;10.82;;
24557;SDS011;12726;49.148;8.582;2024-01-10T06:18:11;25.00;;;10.93;;
24557;SDS011;12726;49.148;8.582;2024-01-10T06:20:57;25.25;;;10.77;;
24557;SDS011;12726;49.148;8.582;2024-01-10T06:23:42;19.83;;;9.70;;
24557;SDS011;12726;49.148;8.582;2024-01-10T06:26:27;16.80;;;8.95;;
24557;SDS011;12726;49.148;8.582;2024-01-10T06:29:13;28.33;;;11.43;;
24557;SDS011;12726;49.148;8.582;2024-01-10T06:32:03;19.73;;;10.23;;
24557;SDS011;12726;49.148;8.582;2024-01-10T06:34:51;25.90;;;11.52;;
24557;SDS011;12726;49.148;8.582;2024-01-10T06:37:37;17.73;;;8.55;;
24557;SDS011;12726;49.148;8.582;2024-01-10T06:40:23;23.63;;;10.13;;
24557;SDS011;12726;49.148;8.582;2024-01-10T06:43:08;23.98;;;10.82;;
24557;SDS011;12726;49.148;8.582;2024-01-10T06:45:55;22.25;;;9.90;;
24557;SDS011;12726;49.148;8.582;2024-01-10T06:48:40;22.13;;;10.77;;
24557;SDS011;12726;49.148;8.582;2024-01-10T06:51:26;23.05;;;10.85;;
24557;SDS011;12726;49.148;8.582;2024-01-10T06:54:12;20.60;;;10.43;;
24557;SDS011;12726;49.148;8.582;2024-01-10T06:56:58;20.98;;;9.13;;
24557;SDS011;12726;49.148;8.582;2024-01-10T06:59:43;25.92;;;10.43;;
24557;SDS011;12726;49.148;8.582;2024-01-10T07:02:29;23.60;;;10.68;;
24557;SDS011;12726;49.148;8.582;2024-01-10T07:05:15;24.45;;;10.45;;
24557;SDS011;12726;49.148;8.582;2024-01-10T07:08:02;21.45;;;10.27;;
24557;SDS011;12726;49.148;8.582;2024-01-10T07:10:48;27.67;;;11.68;;
24557;SDS011;12726;49.148;8.582;2024-01-10T07:13:33;27.77;;;11.10;;
24557;SDS011;12726;49.148;8.582;2024-01-10T07:16:19;23.90;;;9.90;;
24557;SDS011;12726;49.148;8.582;2024-01-10T07:19:04;23.45;;;10.75;;
24557;SDS011;12726;49.148;8.582;2024-01-10T07:21:49;23.15;;;10.93;;
24557;SDS011;12726;49.148;8.582;2024-01-10T07:24:36;21.33;;;10.60;;
24557;SDS011;12726;49.148;8.582;2024-01-10T07:27:22;24.88;;;11.30;;
24557;SDS011;12726;49.148;8.582;2024-01-10T07:30:08;22.15;;;9.70;;
24557;SDS011;12726;49.148;8.582;2024-01-10T07:32:57;22.25;;;9.95;;
24557;SDS011;12726;49.148;8.582;2024-01-10T07:35:42;22.15;;;10.48;;
24557;SDS011;12726;49.148;8.582;2024-01-10T07:38:28;24.77;;;10.52;;
24557;SDS011;12726;49.148;8.582;2024-01-10T07:41:14;25.33;;;10.63;;
24557;SDS011;12726;49.148;8.582;2024-01-10T07:44:00;27.17;;;12.68;;
24557;SDS011;12726;49.148;8.582;2024-01-10T07:46:45;24.10;;;11.45;;
24557;SDS011;12726;49.148;8.582;2024-01-10T07:49:30;26.35;;;11.50;;
24557;SDS011;12726;49.148;8.582;2024-01-10T07:52:15;25.25;;;11.02;;
24557;SDS011;12726;49.148;8.582;2024-01-10T07:55:01;25.55;;;11.77;;
24557;SDS011;12726;49.148;8.582;2024-01-10T07:57:50;27.20;;;12.90;;
24557;SDS011;12726;49.148;8.582;2024-01-10T08:00:35;28.05;;;12.88;;
24557;SDS011;12726;49.148;8.582;2024-01-10T08:03:21;24.45;;;11.80;;
24557;SDS011;12726;49.148;8.582;2024-01-10T08:06:06;24.70;;;12.13;;
24557;SDS011;12726;49.148;8.582;2024-01-10T08:08:52;23.55;;;10.82;;
24557;SDS011;12726;49.148;8.582;2024-01-10T08:11:38;25.63;;;11.68;;
24557;SDS011;12726;49.148;8.582;2024-01-10T08:14:25;24.60;;;11.10;;
24557;SDS011;12726;49.148;8.582;2024-01-10T08:17:10;21.15;;;10.60;;
24557;SDS011;12726;49.148;8.582;2024-01-10T08:19:55;22.88;;;11.73;;
24557;SDS011;12726;49.148;8.582;2024-01-10T08:22:40;25.13;;;11.82;;
24557;SDS011;12726;49.148;8.582;2024-01-10T08:25:27;20.95;;;10.65;;
24557;SDS011;12726;49.148;8.582;2024-01-10T08:28:13;32.38;;;13.20;;
24557;SDS011;12726;49.148;8.582;2024-01-10T08:30:59;29.23;;;13.93;;
24557;SDS011;12726;49.148;8.582;2024-01-10T08:33:45;27.58;;;13.18;;
24557;SDS011;12726;49.148;8.582;2024-01-10T08:36:31;24.83;;;12.43;;
24557;SDS011;12726;49.148;8.582;2024-01-10T08:39:16;22.65;;;12.15;;
24557;SDS011;12726;49.148;8.582;2024-01-10T08:42:01;21.95;;;10.30;;
24557;SDS011;12726;49.148;8.582;2024-01-10T08:44:47;26.73;;;11.40;;
24557;SDS011;12726;49.148;8.582;2024-01-10T08:47:37;24.75;;;11.57;;
24557;SDS011;12726;49.148;8.582;2024-01-10T08:50:22;20.98;;;10.98;;
24557;SDS011;12726;49.148;8.582;2024-01-10T08:53:08;19.73;;;10.30;;
24557;SDS011;12726;49.148;8.582;2024-01-10T08:55:54;28.45;;;10.60;;
24557;SDS011;12726;49.148;8.582;2024-01-10T08:58:39;21.80;;;10.60;;
24557;SDS011;12726;49.148;8.582;2024-01-10T09:01:25;23.80;;;10.57;;
24557;SDS011;12726;49.148;8.582;2024-01-10T09:04:12;22.83;;;10.93;;
24557;SDS011;12726;49.148;8.582;2024-01-10T09:06:57;22.40;;;10.20;;
24557;SDS011;12726;49.148;8.582;2024-01-10T09:09:42;22.17;;;9.88;;
24557;SDS011;12726;49.148;8.582;2024-01-10T09:12:28;18.55;;;9.60;;
24557;SDS011;12726;49.148;8.582;2024-01-10T09:15:13;23.20;;;10.50;;
24557;SDS011;12726;49.148;8.582;2024-01-10T09:17:59;22.00;;;10.73;;
24557;SDS011;12726;49.148;8.582;2024-01-10T09:20:46;17.98;;;10.07;;
24557;SDS011;12726;49.148;8.582;2024-01-10T09:23:31;20.98;;;10.65;;
24557;SDS011;12726;49.148;8.582;2024-01-10T09:26:18;18.83;;;10.02;;
24557;SDS011;12726;49.148;8.582;2024-01-10T09:29:05;21.42;;;10.73;;
24557;SDS011;12726;49.148;8.582;2024-01-10T09:31:51;19.88;;;11.30;;
24557;SDS011;12726;49.148;8.582;2024-01-10T09:34:36;20.02;;;10.80;;
24557;SDS011;12726;49.148;8.582;2024-01-10T09:37:23;20.15;;;11.82;;
24557;SDS011;12726;49.148;8.582;2024-01-10T09:40:09;17.88;;;10.95;;
24557;SDS011;12726;49.148;8.582;2024-01-10T09:42:56;23.63;;;12.38;;
24557;SDS011;12726;49.148;8.582;2024-01-10T09:45:43;20.27;;;11.15;;
24557;SDS011;12726;49.148;8.582;2024-01-10T09:48:31;17.63;;;10.93;;
24557;SDS011;12726;49.148;8.582;2024-01-10T09:51:16;22.20;;;11.27;;
24557;SDS011;12726;49.148;8.582;2024-01-10T09:54:03;20.73;;;11.15;;
24557;SDS011;12726;49.148;8.582;2024-01-10T09:56:49;20.13;;;11.35;;
24557;SDS011;12726;49.148;8.582;2024-01-10T09:59:34;16.60;;;10.98;;
24557;SDS011;12726;49.148;8.582;2024-01-10T10:02:20;21.75;;;11.43;;
24557;SDS011;12726;49.148;8.582;2024-01-10T10:05:08;19.63;;;11.35;;
24557;SDS011;12726;49.148;8.582;2024-01-10T10:07:57;16.35;;;10.18;;
24557;SDS011;12726;49.148;8.582;2024-01-10T10:10:44;18.08;;;11.07;;
24557;SDS011;12726;49.148;8.582;2024-01-10T10:13:30;20.92;;;11.63;;
24557;SDS011;12726;49.148;8.582;2024-01-10T10:16:15;19.05;;;11.63;;
24557;SDS011;12726;49.148;8.582;2024-01-10T10:19:09;19.98;;;11.45;;
24557;SDS011;12726;49.148;8.582;2024-01-10T10:21:56;19.05;;;11.55;;
24557;SDS011;12726;49.148;8.582;2024-01-10T10:24:53;21.80;;;12.27;;
24557;SDS011;12726;49.148;8.582;2024-01-10T10:27:40;18.98;;;10.90;;
24557;SDS011;12726;49.148;8.582;2024-01-10T10:30:25;21.30;;;10.95;;
24557;SDS011;12726;49.148;8.582;2024-01-10T10:33:11;18.08;;;11.35;;
24557;SDS011;12726;49.148;8.582;2024-01-10T10:35:56;18.10;;;11.30;;
24557;SDS011;12726;49.148;8.582;2024-01-10T10:38:41;20.92;;;12.20;;
24557;SDS011;12726;49.148;8.582;2024-01-10T10:41:27;22.13;;;12.18;;
24557;SDS011;12726;49.148;8.582;2024-01-10T10:44:17;18.08;;;12.60;;
24557;SDS011;12726;49.148;8.582;2024-01-10T10:47:04;20.35;;;12.63;;
24557;SDS011;12726;49.148;8.582;2024-01-10T10:49:54;19.35;;;12.77;;
24557;SDS011;12726;49.148;8.582;2024-01-10T10:52:41;18.02;;;12.85;;
24557;SDS011;12726;49.148;8.582;2024-01-10T10:55:31;21.08;;;12.40;;
24557;SDS011;12726;49.148;8.582;2024-01-10T10:58:19;21.95;;;12.43;;
24557;SDS011;12726;49.148;8.582;2024-01-10T11:01:06;17.42;;;11.63;;
24557;SDS011;12726;49.148;8.582;2024-01-10T11:03:52;22.50;;;12.88;;
24557;SDS011;12726;49.148;8.582;2024-01-10T11:06:40;19.92;;;12.40;;
24557;SDS011;12726;49.148;8.582;2024-01-10T11:09:26;20.98;;;12.65;;
24557;SDS011;12726;49.148;8.582;2024-01-10T11:12:18;20.35;;;12.63;;
24557;SDS011;12726;49.148;8.582;2024-01-10T11:15:19;19.35;;;12.02;;
24557;SDS011;12726;49.148;8.582;2024-01-10T11:18:23;19.83;;;12.93;;
24557;SDS011;12726;49.148;8.582;2024-01-10T11:21:24;18.38;;;11.10;;
24557;SDS011;12726;49.148;8.582;2024-01-10T11:24:21;20.15;;;12.35;;
24557;SDS011;12726;49.148;8.582;2024-01-10T11:27:10;22.70;;;13.00;;
24557;SDS011;12726;49.148;8.582;2024-01-10T11:29:56;17.80;;;11.75;;
24557;SDS011;12726;49.148;8.582;2024-01-10T11:32:43;21.27;;;12.18;;
24557;SDS011;12726;49.148;8.582;2024-01-10T11:35:29;18.73;;;12.85;;
24557;SDS011;12726;49.148;8.582;2024-01-10T11:38:16;21.33;;;13.20;;
24557;SDS011;12726;49.148;8.582;2024-01-10T11:41:01;18.42;;;12.90;;
24557;SDS011;12726;49.148;8.582;2024-01-10T11:47:03;32.22;;;20.50;;
24557;SDS011;12726;49.148;8.582;2024-01-10T11:49:55;19.75;;;13.07;;
24557;SDS011;12726;49.148;8.582;2024-01-10T11:55:46;20.27;;;13.15;;
24557;SDS011;12726;49.148;8.582;2024-01-10T11:58:32;19.02;;;12.88;;
24557;SDS011;12726;49.148;8.582;2024-01-10T12:01:17;21.30;;;13.63;;
24557;SDS011;12726;49.148;8.582;2024-01-10T12:04:04;19.75;;;12.55;;
24557;SDS011;12726;49.148;8.582;2024-01-10T12:06:49;19.45;;;13.30;;
24557;SDS011;12726;49.148;8.582;2024-01-10T12:09:37;20.65;;;13.98;;
24557;SDS011;12726;49.148;8.582;2024-01-10T12:12:22;20.60;;;13.32;;
24557;SDS011;12726;49.148;8.582;2024-01-10T12:15:08;21.88;;;13.35;;
24557;SDS011;12726;49.148;8.582;2024-01-10T12:17:54;18.00;;;13.38;;
24557;SDS011;12726;49.148;8.582;2024-01-10T12:20:39;20.13;;;12.63;;
24557;SDS011;12726;49.148;8.582;2024-01-10T12:23:27;18.63;;;12.57;;
24557;SDS011;12726;49.148;8.582;2024-01-10T12:26:17;19.35;;;13.05;;
24557;SDS011;12726;49.148;8.582;2024-01-10T12:29:03;19.98;;;13.27;;
24557;SDS011;12726;49.148;8.582;2024-01-10T12:31:50;19.75;;;13.52;;
24557;SDS011;12726;49.148;8.582;2024-01-10T12:34:37;20.45;;;12.90;;
24557;SDS011;12726;49.148;8.582;2024-01-10T12:37:23;19.58;;;13.18;;
24557;SDS011;12726;49.148;8.582;2024-01-10T12:40:09;21.08;;;13.23;;
24557;SDS011;12726;49.148;8.582;2024-01-10T12:43:02;20.77;;;13.65;;
24557;SDS011;12726;49.148;8.582;2024-01-10T12:45:47;17.92;;;13.25;;
24557;SDS011;12726;49.148;8.582;2024-01-10T12:48:33;22.08;;;13.82;;
24557;SDS011;12726;49.148;8.582;2024-01-10T12:51:21;21.77;;;13.63;;
24557;SDS011;12726;49.148;8.582;2024-01-10T12:54:06;20.85;;;13.35;;
24557;SDS011;12726;49.148;8.582;2024-01-10T12:56:52;21.65;;;12.70;;
24557;SDS011;12726;49.148;8.582;2024-01-10T12:59:38;18.38;;;13.10;;
24557;SDS011;12726;49.148;8.582;2024-01-10T13:02:24;22.27;;;14.43;;
24557;SDS011;12726;49.148;8.582;2024-01-10T13:05:09;19.58;;;14.10;;
24557;SDS011;12726;49.148;8.582;2024-01-10T13:07:55;23.52;;;14.82;;
24557;SDS011;12726;49.148;8.582;2024-01-10T13:10:41;22.65;;;13.52;;
24557;SDS011;12726;49.148;8.582;2024-01-10T13:13:26;22.80;;;14.18;;
24557;SDS011;12726;49.148;8.582;2024-01-10T13:16:12;23.33;;;13.20;;
24557;SDS011;12726;49.148;8.582;2024-01-10T13:18:58;22.52;;;13.57;;
24557;SDS011;12726;49.148;8.582;2024-01-10T13:21:43;24.30;;;13.15;;
24557;SDS011;12726;49.148;8.582;2024-01-10T13:24:29;26.40;;;14.15;;
24557;SDS011;12726;49.148;8.582;2024-01-10T13:27:14;20.40;;;12.45;;
24557;SDS011;12726;49.148;8.582;2024-01-10T13:29:59;23.63;;;13.38;;
24557;SDS011;12726;49.148;8.582;2024-01-10T13:32:46;24.25;;;13.75;;
24557;SDS011;12726;49.148;8.582;2024-01-10T13:35:31;22.20;;;12.70;;
24557;SDS011;12726;49.148;8.582;2024-01-10T13:38:17;22.50;;;13.27;;
24557;SDS011;12726;49.148;8.582;2024-01-10T13:41:02;24.48;;;13.82;;
24557;SDS011;12726;49.148;8.582;2024-01-10T13:43:49;23.73;;;13.20;;
24557;SDS011;12726;49.148;8.582;2024-01-10T13:46:35;25.85;;;13.75;;
24557;SDS011;12726;49.148;8.582;2024-01-10T13:49:22;24.60;;;13.10;;
24557;SDS011;12726;49.148;8.582;2024-01-10T13:52:07;29.83;;;13.75;;
24557;SDS011;12726;49.148;8.582;2024-01-10T13:54:52;27.15;;;13.45;;
24557;SDS011;12726;49.148;8.582;2024-01-10T13:57:38;26.77;;;13.27;;
24557;SDS011;12726;49.148;8.582;2024-01-10T14:00:23;22.23;;;12.27;;
24557;SDS011;12726;49.148;8.582;2024-01-10T14:03:09;26.88;;;13.75;;
24557;SDS011;12726;49.148;8.582;2024-01-10T14:05:56;27.45;;;12.75;;
24557;SDS011;12726;49.148;8.582;2024-01-10T14:08:41;25.67;;;13.10;;
24557;SDS011;12726;49.148;8.582;2024-01-10T14:11:29;24.77;;;12.43;;
24557;SDS011;12726;49.148;8.582;2024-01-10T14:14:15;28.42;;;13.32;;
24557;SDS011;12726;49.148;8.582;2024-01-10T14:17:00;26.60;;;13.38;;
24557;SDS011;12726;49.148;8.582;2024-01-10T14:19:48;23.23;;;13.50;;
24557;SDS011;12726;49.148;8.582;2024-01-10T14:22:36;30.90;;;15.10;;
24557;SDS011;12726;49.148;8.582;2024-01-10T14:25:21;27.08;;;14.02;;
24557;SDS011;12726;49.148;8.582;2024-01-10T14:28:06;27.73;;;14.32;;
24557;SDS011;12726;49.148;8.582;2024-01-10T14:30:52;24.90;;;14.60;;
24557;SDS011;12726;49.148;8.582;2024-01-10T14:33:37;27.02;;;14.43;;
24557;SDS011;12726;49.148;8.582;2024-01-10T14:36:23;30.67;;;14.70;;
24557;SDS011;12726;49.148;8.582;2024-01-10T14:39:09;27.75;;;14.23;;
24557;SDS011;12726;49.148;8.582;2024-01-10T14:41:56;26.15;;;13.82;;
24557;SDS011;12726;49.148;8.582;2024-01-10T14:44:42;27.80;;;15.00;;
24557;SDS011;12726;49.148;8.582;2024-01-10T14:47:29;29.80;;;14.30;;
24557;SDS011;12726;49.148;8.582;2024-01-10T14:50:14;27.35;;;14.82;;
24557;SDS011;12726;49.148;8.582;2024-01-10T14:53:00;28.67;;;13.48;;
24557;SDS011;12726;49.148;8.582;2024-01-10T14:55:47;36.08;;;15.23;;
24557;SDS011;12726;49.148;8.582;2024-01-10T14:58:33;28.40;;;14.73;;
24557;SDS011;12726;49.148;8.582;2024-01-10T15:01:18;27.08;;;14.82;;
24557;SDS011;12726;49.148;8.582;2024-01-10T15:04:04;27.02;;;13.75;;
24557;SDS011;12726;49.148;8.582;2024-01-10T15:06:49;28.67;;;13.77;;
24557;SDS011;12726;49.148;8.582;2024-01-10T15:09:34;28.50;;;14.68;;
24557;SDS011;12726;49.148;8.582;2024-01-10T15:12:22;32.00;;;16.10;;
24557;SDS011;12726;49.148;8.582;2024-01-10T15:15:07;27.27;;;13.50;;
24557;SDS011;12726;49.148;8.582;2024-01-10T15:17:53;28.80;;;13.95;;
24557;SDS011;12726;49.148;8.582;2024-01-10T15:20:39;24.45;;;13.50;;
24557;SDS011;12726;49.148;8.582;2024-01-10T15:23:24;25.27;;;13.88;;
24557;SDS011;12726;49.148;8.582;2024-01-10T15:26:14;27.27;;;14.07;;
24557;SDS011;12726;49.148;8.582;2024-01-10T15:29:01;27.48;;;14.80;;
24557;SDS011;12726;49.148;8.582;2024-01-10T15:31:48;29.25;;;15.07;;
24557;SDS011;12726;49.148;8.582;2024-01-10T15:34:33;30.33;;;15.35;;
24557;SDS011;12726;49.148;8.582;2024-01-10T15:37:18;32.50;;;15.30;;
24557;SDS011;12726;49.148;8.582;2024-01-10T15:40:07;34.25;;;15.77;;
24557;SDS011;12726;49.148;8.582;2024-01-10T15:42:53;28.33;;;14.82;;
24557;SDS011;12726;49.148;8.582;2024-01-10T15:45:40;26.65;;;13.98;;
24557;SDS011;12726;49.148;8.582;2024-01-10T15:48:25;28.42;;;14.38;;
24557;SDS011;12726;49.148;8.582;2024-01-10T15:51:11;26.40;;;14.55;;
24557;SDS011;12726;49.148;8.582;2024-01-10T15:53:57;28.45;;;14.48;;
24557;SDS011;12726;49.148;8.582;2024-01-10T15:56:43;28.52;;;14.50;;
24557;SDS011;12726;49.148;8.582;2024-01-10T15:59:28;28.70;;;15.13;;
24557;SDS011;12726;49.148;8.582;2024-01-10T16:02:15;26.25;;;13.85;;
24557;SDS011;12726;49.148;8.582;2024-01-10T16:05:01;29.58;;;15.25;;
24557;SDS011;12726;49.148;8.582;2024-01-10T16:07:47;28.05;;;14.98;;
24557;SDS011;12726;49.148;8.582;2024-01-10T16:10:32;33.97;;;15.65;;
24557;SDS011;12726;49.148;8.582;2024-01-10T16:13:18;27.95;;;14.35;;
24557;SDS011;12726;49.148;8.582;2024-01-10T16:16:03;33.00;;;15.98;;
24557;SDS011;12726;49.148;8.582;2024-01-10T16:18:53;36.30;;;16.88;;
24557;SDS011;12726;49.148;8.582;2024-01-10T16:21:39;36.67;;;18.35;;
24557;SDS011;12726;49.148;8.582;2024-01-10T16:24:25;36.92;;;17.58;;